Time;durP1;ratioP1;P1;durP2;ratioP2;P2;SDS_P1;SDS_P2;PMS_P1;PMS_P2;Temp;Humidity;BMP_temperature;BMP_pressure;BME280_temperature;BME280_humidity;BME280_pressure;Samples;Min_cycle;Max_cycle;Signal;HPM_P1;HPM_P2
2021/06/09 00:00:25;;;;;;;19.37;17.77;;;21.10;98.50;;;;;;5029768;28;20630;-54
2021/06/09 00:02:52;;;;;;;19.50;17.80;;;21.10;98.40;;;;;;5029587;28;20713;-53
2021/06/09 00:05:19;;;;;;;18.97;17.47;;;21.10;98.30;;;;;;5031304;28;20611;-53
2021/06/09 00:07:45;;;;;;;17.43;16.03;;;21.10;98.30;;;;;;5038331;28;20630;-52
2021/06/09 00:10:14;;;;;;;19.57;17.80;;;21.10;98.30;;;;;;5047973;28;20634;-54
2021/06/09 00:12:40;;;;;;;18.33;16.73;;;21.10;98.40;;;;;;5046269;28;20699;-53
2021/06/09 00:15:08;;;;;;;19.63;18.13;;;21.00;98.30;;;;;;5033601;28;20669;-53
2021/06/09 00:17:35;;;;;;;20.93;19.33;;;21.10;98.30;;;;;;5028115;28;20695;-53
2021/06/09 00:20:02;;;;;;;21.00;19.40;;;21.00;98.50;;;;;;5029327;28;20721;-53
2021/06/09 00:22:29;;;;;;;18.53;16.97;;;21.00;98.20;;;;;;5029307;28;20670;-52
2021/06/09 00:24:56;;;;;;;21.87;20.07;;;21.00;98.30;;;;;;5022222;28;20635;-53
2021/06/09 00:27:25;;;;;;;19.50;17.90;;;21.00;98.30;;;;;;5009671;28;21184;-53
2021/06/09 00:29:52;;;;;;;21.00;19.30;;;21.00;98.30;;;;;;5019094;28;20693;-52
2021/06/09 00:32:18;;;;;;;21.57;19.60;;;21.00;98.20;;;;;;5029457;28;20690;-53
2021/06/09 00:34:46;;;;;;;20.47;18.70;;;20.90;98.20;;;;;;5028270;28;20762;-52
2021/06/09 00:37:12;;;;;;;21.17;19.37;;;20.90;98.20;;;;;;5028444;28;20959;-51
2021/06/09 00:39:39;;;;;;;19.17;17.63;;;20.90;98.20;;;;;;5030408;28;20651;-52
2021/06/09 00:42:06;;;;;;;18.73;17.43;;;20.90;98.30;;;;;;5029747;28;20670;-52
2021/06/09 00:44:34;;;;;;;20.50;18.50;;;20.90;98.40;;;;;;5030214;28;20780;-53
2021/06/09 00:47:01;;;;;;;21.73;19.93;;;20.90;98.40;;;;;;5029785;28;21025;-53
2021/06/09 00:49:28;;;;;;;19.30;17.67;;;20.90;98.30;;;;;;5029852;28;20712;-53
2021/06/09 00:51:55;;;;;;;20.10;18.30;;;20.90;98.30;;;;;;5029643;28;20688;-53
2021/06/09 00:54:21;;;;;;;22.87;20.77;;;21.00;98.30;;;;;;5029807;28;20828;-52
2021/06/09 00:56:48;;;;;;;20.20;18.70;;;21.00;98.30;;;;;;5029962;28;20708;-52
2021/06/09 00:59:15;;;;;;;21.77;20.03;;;20.90;98.10;;;;;;5028639;28;20652;-53
2021/06/09 01:01:43;;;;;;;21.67;19.90;;;20.90;98.10;;;;;;5029656;28;20635;-55
2021/06/09 01:04:10;;;;;;;21.63;19.90;;;20.90;98.10;;;;;;5028287;28;20655;-54
2021/06/09 01:06:36;;;;;;;22.77;20.67;;;20.90;98.20;;;;;;5029809;28;20634;-53
2021/06/09 01:09:07;;;;;;;20.93;19.33;;;20.90;98.20;;;;;;5028929;28;20636;-52
2021/06/09 01:11:34;;;;;;;21.47;19.57;;;20.90;98.30;;;;;;5030067;28;20750;-53
2021/06/09 01:14:00;;;;;;;22.20;20.40;;;20.90;98.30;;;;;;5029460;28;20659;-52
2021/06/09 01:16:27;;;;;;;21.37;19.70;;;20.80;98.30;;;;;;5028114;28;22029;-53
2021/06/09 01:18:55;;;;;;;23.80;21.70;;;20.80;98.40;;;;;;5029558;28;20667;-53
2021/06/09 01:21:26;;;;;;;23.43;21.50;;;20.90;98.50;;;;;;5029489;28;20669;-53
2021/06/09 01:23:53;;;;;;;23.50;21.60;;;20.80;98.50;;;;;;5028764;28;20716;-54
2021/06/09 01:26:20;;;;;;;22.30;20.30;;;20.90;98.50;;;;;;5029068;28;20630;-54
2021/06/09 01:28:46;;;;;;;24.00;22.07;;;20.80;98.60;;;;;;5029840;28;20631;-54
2021/06/09 01:31:13;;;;;;;24.53;22.53;;;20.80;98.60;;;;;;5029649;28;20627;-54
2021/06/09 01:33:40;;;;;;;23.80;21.90;;;20.80;98.60;;;;;;5029696;28;20720;-53
2021/06/09 01:36:07;;;;;;;22.97;21.07;;;20.80;98.70;;;;;;5029597;28;20812;-53
2021/06/09 01:38:36;;;;;;;26.23;23.60;;;20.90;98.80;;;;;;5029087;28;20729;-53
2021/06/09 01:41:02;;;;;;;25.90;23.87;;;20.80;98.80;;;;;;5029051;28;20631;-52
2021/06/09 01:43:30;;;;;;;23.87;21.60;;;20.80;98.80;;;;;;5029039;28;20696;-53
2021/06/09 01:45:57;;;;;;;24.07;22.00;;;20.80;98.80;;;;;;5029473;28;20631;-53
2021/06/09 01:48:24;;;;;;;24.50;22.53;;;20.80;98.90;;;;;;5029876;28;20700;-52
2021/06/09 01:50:51;;;;;;;24.67;22.77;;;20.80;98.90;;;;;;5029705;28;20696;-53
2021/06/09 01:53:18;;;;;;;23.23;21.03;;;20.80;98.80;;;;;;5028306;28;20705;-52
2021/06/09 01:55:47;;;;;;;23.03;21.10;;;20.70;98.70;;;;;;5029818;28;21081;-52
2021/06/09 01:58:14;;;;;;;23.83;21.93;;;20.80;98.80;;;;;;5029807;28;20627;-53
2021/06/09 02:00:42;;;;;;;24.53;22.47;;;20.80;98.90;;;;;;5029517;28;20692;-53
2021/06/09 02:03:09;;;;;;;22.87;21.07;;;20.70;98.80;;;;;;5029186;28;20657;-53
2021/06/09 02:05:36;;;;;;;22.67;20.87;;;20.70;98.80;;;;;;5029109;28;20630;-54
2021/06/09 02:08:04;;;;;;;21.50;19.70;;;20.70;98.90;;;;;;5028450;28;20627;-53
2021/06/09 02:10:31;;;;;;;23.37;21.43;;;20.70;98.90;;;;;;5029666;28;20635;-53
2021/06/09 02:13:01;;;;;;;24.10;21.80;;;20.80;98.90;;;;;;5028988;28;20668;-53
2021/06/09 02:15:28;;;;;;;23.23;21.13;;;20.70;98.80;;;;;;5029165;28;20724;-53
2021/06/09 02:18:08;;;;;;;21.00;19.20;;;20.70;98.90;;;;;;5029054;28;20668;-54
2021/06/09 02:20:37;;;;;;;24.23;22.13;;;20.70;99.00;;;;;;5028832;28;20646;-55
2021/06/09 02:23:03;;;;;;;23.50;21.57;;;20.70;99.00;;;;;;5029107;28;20659;-53
2021/06/09 02:25:30;;;;;;;24.77;22.70;;;20.70;99.00;;;;;;5029092;28;20638;-53
2021/06/09 02:27:59;;;;;;;23.73;21.73;;;20.70;99.00;;;;;;5029560;28;20677;-53
2021/06/09 02:30:26;;;;;;;25.00;22.80;;;20.70;99.00;;;;;;5032442;28;20627;-53
2021/06/09 02:32:53;;;;;;;25.10;23.10;;;20.60;99.00;;;;;;5032715;28;20724;-53
2021/06/09 02:35:20;;;;;;;24.17;22.07;;;20.60;99.10;;;;;;5032307;28;20669;-53
2021/06/09 02:37:50;;;;;;;24.30;22.20;;;20.60;99.10;;;;;;5031421;28;20626;-53
2021/06/09 02:40:17;;;;;;;27.07;24.77;;;20.60;99.10;;;;;;5032348;28;20740;-53
2021/06/09 02:42:43;;;;;;;22.17;20.37;;;20.60;99.10;;;;;;5031617;28;20666;-53
2021/06/09 02:45:14;;;;;;;23.50;21.70;;;20.60;99.10;;;;;;5047566;22;21105;-59
2021/06/09 02:47:43;;;;;;;22.37;20.57;;;20.60;99.10;;;;;;5033842;28;21256;-59
2021/06/09 02:50:11;;;;;;;24.07;22.07;;;20.60;99.10;;;;;;5034049;28;20661;-58
2021/06/09 02:52:40;;;;;;;24.30;22.30;;;20.50;99.10;;;;;;5052901;28;20659;-59
2021/06/09 02:55:11;;;;;;;25.17;23.07;;;20.50;99.10;;;;;;5053876;28;21198;-58
2021/06/09 02:57:40;;;;;;;24.70;22.60;;;20.50;99.20;;;;;;5049686;28;20642;-58
2021/06/09 03:00:08;;;;;;;24.07;21.83;;;20.50;99.10;;;;;;5033686;28;20677;-59
2021/06/09 03:02:45;;;;;;;24.87;22.77;;;20.50;99.10;;;;;;5017591;28;21156;-59
2021/06/09 03:05:16;;;;;;;25.03;22.93;;;20.50;99.10;;;;;;5013642;28;20701;-59
2021/06/09 03:07:49;;;;;;;23.80;21.80;;;20.40;99.00;;;;;;5013470;28;20616;-59
2021/06/09 03:10:20;;;;;;;26.10;23.80;;;20.40;99.10;;;;;;5013379;28;21108;-59
2021/06/09 03:12:51;;;;;;;23.10;21.20;;;20.40;99.20;;;;;;5013500;28;20624;-59
2021/06/09 03:15:19;;;;;;;23.47;21.23;;;20.40;99.20;;;;;;5014665;28;20690;-59
2021/06/09 03:17:51;;;;;;;24.57;22.50;;;20.30;99.10;;;;;;5016860;28;20627;-59
2021/06/09 03:20:22;;;;;;;23.60;21.70;;;20.40;99.10;;;;;;5018290;28;20651;-60
2021/06/09 03:22:56;;;;;;;22.37;20.43;;;20.30;99.10;;;;;;5032997;28;20635;-59
2021/06/09 03:25:24;;;;;;;22.23;20.40;;;20.30;99.20;;;;;;5041991;28;20696;-60
2021/06/09 03:27:53;;;;;;;23.33;21.47;;;20.30;99.20;;;;;;5044567;28;21206;-59
2021/06/09 03:30:20;;;;;;;22.57;20.67;;;20.30;99.20;;;;;;5025197;28;20620;-59
2021/06/09 03:32:51;;;;;;;23.90;21.60;;;20.20;99.20;;;;;;5012620;28;21035;-59
2021/06/09 03:35:19;;;;;;;22.20;20.33;;;20.20;99.20;;;;;;5013175;28;20660;-59
2021/06/09 03:37:47;;;;;;;23.40;21.13;;;20.20;99.20;;;;;;5029088;28;21224;-58
2021/06/09 03:40:16;;;;;;;21.23;19.53;;;20.20;99.20;;;;;;5024209;28;20658;-59
2021/06/09 03:42:45;;;;;;;22.27;20.47;;;20.20;99.20;;;;;;5032472;28;21230;-60
2021/06/09 03:45:12;;;;;;;22.67;20.67;;;20.20;99.30;;;;;;5021307;28;20676;-60
2021/06/09 03:47:39;;;;;;;23.03;20.90;;;20.20;99.30;;;;;;5012551;28;20632;-60
2021/06/09 03:50:08;;;;;;;21.30;19.30;;;20.20;99.20;;;;;;5028049;28;20638;-60
2021/06/09 03:52:35;;;;;;;23.73;21.63;;;20.20;99.20;;;;;;5032707;28;20694;-60
2021/06/09 03:55:02;;;;;;;23.53;21.73;;;20.10;99.10;;;;;;5031913;28;20654;-60
2021/06/09 03:57:31;;;;;;;22.17;20.47;;;20.20;99.20;;;;;;5022760;28;20644;-59
2021/06/09 03:59:58;;;;;;;21.60;19.70;;;20.10;99.10;;;;;;5026319;28;20784;-60
2021/06/09 04:02:24;;;;;;;22.40;20.60;;;20.10;99.10;;;;;;5033467;28;20692;-59
2021/06/09 04:04:52;;;;;;;22.03;20.33;;;20.10;99.10;;;;;;5031458;28;20651;-59
2021/06/09 04:07:21;;;;;;;21.70;19.90;;;20.10;99.00;;;;;;5017764;28;21184;-59
2021/06/09 04:09:48;;;;;;;21.60;19.80;;;20.10;99.00;;;;;;5029770;28;20673;-60
2021/06/09 04:12:15;;;;;;;22.80;21.10;;;20.10;99.00;;;;;;5032019;28;21175;-59
2021/06/09 04:14:44;;;;;;;22.37;20.43;;;20.20;99.00;;;;;;5031690;28;20690;-60
2021/06/09 04:17:11;;;;;;;22.70;20.90;;;20.10;99.00;;;;;;5021594;28;20682;-59
2021/06/09 04:19:41;;;;;;;22.67;20.87;;;20.10;98.90;;;;;;5020437;28;21190;-59
2021/06/09 04:22:08;;;;;;;23.37;21.37;;;20.10;98.90;;;;;;5019704;28;20636;-60
2021/06/09 04:24:38;;;;;;;22.50;20.37;;;20.10;99.00;;;;;;5023573;28;21077;-59
2021/06/09 04:27:07;;;;;;;21.37;19.67;;;20.10;99.00;;;;;;5031170;28;20914;-59
2021/06/09 04:29:33;;;;;;;21.43;19.77;;;20.10;99.10;;;;;;5027888;28;21042;-59
2021/06/09 04:32:00;;;;;;;21.60;19.93;;;20.20;99.10;;;;;;5024996;28;20746;-58
2021/06/09 04:34:27;;;;;;;22.73;20.60;;;20.20;99.10;;;;;;5021626;28;20663;-58
2021/06/09 04:36:54;;;;;;;21.77;19.97;;;20.20;99.10;;;;;;5011577;28;20674;-58
2021/06/09 04:39:21;;;;;;;22.20;20.30;;;20.20;99.00;;;;;;5011641;28;21215;-59
2021/06/09 04:41:49;;;;;;;20.77;19.00;;;20.20;99.00;;;;;;5013563;28;20692;-59
2021/06/09 04:44:16;;;;;;;19.67;17.90;;;20.20;99.00;;;;;;5029411;28;20675;-58
2021/06/09 04:46:42;;;;;;;22.00;20.00;;;20.20;99.00;;;;;;5029561;28;20688;-59
2021/06/09 04:49:09;;;;;;;23.73;20.73;;;20.20;98.90;;;;;;5031486;28;20619;-59
2021/06/09 04:51:37;;;;;;;20.90;19.23;;;20.20;98.80;;;;;;5029745;28;21020;-59
2021/06/09 04:54:04;;;;;;;22.80;20.80;;;20.20;98.60;;;;;;5030842;28;21095;-59
2021/06/09 04:56:32;;;;;;;18.60;17.00;;;20.20;98.60;;;;;;5030742;28;20666;-59
2021/06/09 04:59:03;;;;;;;21.17;19.37;;;20.30;98.70;;;;;;5029873;28;20619;-58
2021/06/09 05:01:30;;;;;;;20.60;19.00;;;20.30;98.70;;;;;;5031038;28;20654;-58
2021/06/09 05:03:57;;;;;;;20.40;18.53;;;20.30;98.60;;;;;;5030936;28;21046;-59
2021/06/09 05:06:24;;;;;;;22.40;20.27;;;20.30;98.50;;;;;;5030345;28;20627;-58
2021/06/09 05:08:51;;;;;;;21.13;19.33;;;20.30;98.60;;;;;;5030674;28;20631;-58
2021/06/09 05:11:20;;;;;;;22.10;20.20;;;20.30;98.20;;;;;;5030709;28;20669;-59
2021/06/09 05:13:47;;;;;;;21.50;19.60;;;20.30;98.20;;;;;;5034016;28;20642;-59
2021/06/09 05:16:16;;;;;;;21.77;19.77;;;20.30;98.00;;;;;;5037858;28;21182;-59
2021/06/09 05:18:43;;;;;;;21.43;19.63;;;20.30;97.80;;;;;;5030219;28;20623;-59
2021/06/09 05:21:10;;;;;;;21.23;19.43;;;20.30;97.60;;;;;;5030739;28;20666;-60
2021/06/09 05:23:40;;;;;;;23.20;20.70;;;20.30;97.60;;;;;;5029742;28;20704;-60
2021/06/09 05:26:07;;;;;;;21.03;19.00;;;20.30;97.60;;;;;;5029704;28;21241;-58
2021/06/09 05:28:35;;;;;;;20.23;18.63;;;20.20;98.00;;;;;;5030339;28;21008;-59
2021/06/09 05:31:02;;;;;;;22.53;20.53;;;20.30;97.70;;;;;;5029968;28;20630;-59
2021/06/09 05:33:30;;;;;;;21.03;19.33;;;20.20;97.50;;;;;;5027517;28;20692;-59
2021/06/09 05:35:57;;;;;;;21.20;19.30;;;20.20;97.50;;;;;;5025951;28;20616;-59
2021/06/09 05:38:24;;;;;;;19.77;18.27;;;20.20;97.50;;;;;;5009991;28;20631;-58
2021/06/09 05:40:51;;;;;;;19.53;17.83;;;20.20;97.60;;;;;;5008342;28;20810;-58
2021/06/09 05:43:20;;;;;;;18.80;17.23;;;20.30;97.70;;;;;;5010368;28;20686;-59
2021/06/09 05:45:46;;;;;;;18.00;16.50;;;20.30;97.60;;;;;;5018023;28;20724;-58
2021/06/09 05:48:13;;;;;;;19.23;17.63;;;20.40;97.60;;;;;;5028198;28;20611;-58
2021/06/09 05:50:41;;;;;;;18.40;16.90;;;20.40;97.50;;;;;;5029886;28;20618;-59
2021/06/09 05:53:09;;;;;;;19.30;17.70;;;20.40;97.50;;;;;;5010180;28;20627;-60
2021/06/09 05:55:36;;;;;;;19.13;17.50;;;20.50;97.40;;;;;;5010289;28;20659;-59
2021/06/09 05:58:03;;;;;;;18.77;16.83;;;20.50;97.40;;;;;;5016761;28;20630;-58
2021/06/09 06:00:31;;;;;;;15.87;14.57;;;20.60;97.40;;;;;;5029857;28;21050;-59
2021/06/09 06:02:58;;;;;;;16.67;15.07;;;20.60;97.30;;;;;;5030932;28;20681;-58
2021/06/09 06:05:24;;;;;;;17.73;16.20;;;20.60;97.30;;;;;;5034024;28;20654;-58
2021/06/09 06:07:52;;;;;;;19.23;17.27;;;20.70;97.30;;;;;;5033322;28;20623;-59
2021/06/09 06:10:20;;;;;;;19.47;17.80;;;20.70;97.30;;;;;;5034109;28;20696;-59
2021/06/09 06:12:48;;;;;;;18.40;17.00;;;20.80;97.10;;;;;;5033884;28;20626;-60
2021/06/09 06:15:15;;;;;;;17.10;15.70;;;20.80;97.00;;;;;;5049897;28;20683;-59
2021/06/09 06:17:42;;;;;;;17.20;15.90;;;20.80;97.00;;;;;;5053631;28;21171;-58
2021/06/09 06:20:13;;;;;;;16.77;15.37;;;20.90;97.10;;;;;;5052533;28;20728;-59
2021/06/09 06:22:40;;;;;;;16.47;15.07;;;20.90;96.90;;;;;;5053285;28;21259;-59
2021/06/09 06:25:09;;;;;;;17.80;16.00;;;20.90;96.90;;;;;;5053815;28;20693;-59
2021/06/09 06:27:36;;;;;;;16.77;15.37;;;21.00;96.80;;;;;;5053701;28;20633;-59
2021/06/09 06:30:04;;;;;;;16.23;14.60;;;21.00;96.80;;;;;;5053332;28;20630;-58
2021/06/09 06:32:30;;;;;;;17.23;15.73;;;21.00;96.60;;;;;;5051714;28;21271;-60
2021/06/09 06:34:57;;;;;;;17.63;16.10;;;21.10;96.60;;;;;;5052999;28;20653;-59
2021/06/09 06:37:24;;;;;;;17.83;16.20;;;21.10;96.60;;;;;;5052614;28;20625;-59
2021/06/09 06:39:51;;;;;;;17.30;15.80;;;21.20;96.60;;;;;;5053227;28;21208;-58
2021/06/09 06:42:19;;;;;;;18.13;16.63;;;21.20;96.70;;;;;;5053034;28;20687;-59
2021/06/09 06:44:46;;;;;;;18.07;16.37;;;21.20;96.60;;;;;;5042764;28;20677;-57
2021/06/09 06:47:15;;;;;;;17.03;15.73;;;21.20;96.60;;;;;;5012649;28;21143;-59
2021/06/09 06:49:42;;;;;;;19.97;18.27;;;21.30;96.70;;;;;;5013137;28;20632;-57
2021/06/09 06:52:09;;;;;;;16.60;15.23;;;21.30;96.60;;;;;;5013344;28;20620;-57
2021/06/09 06:54:36;;;;;;;17.90;16.20;;;21.40;96.60;;;;;;5012861;28;20667;-58
2021/06/09 06:57:03;;;;;;;18.30;16.70;;;21.50;96.60;;;;;;5012652;28;20658;-57
2021/06/09 06:59:31;;;;;;;19.50;17.90;;;21.60;96.50;;;;;;5013149;28;20624;-58
2021/06/09 07:01:58;;;;;;;17.90;16.50;;;21.60;96.20;;;;;;5013516;28;20690;-57
2021/06/09 07:04:25;;;;;;;18.10;16.57;;;21.60;96.30;;;;;;5013056;28;20655;-58
2021/06/09 07:06:51;;;;;;;17.23;15.70;;;21.70;96.20;;;;;;5012274;28;20612;-58
2021/06/09 07:09:19;;;;;;;18.63;16.97;;;21.70;96.30;;;;;;5012723;28;20623;-58
2021/06/09 07:11:47;;;;;;;17.10;15.80;;;21.80;96.30;;;;;;5012483;28;20612;-59
2021/06/09 07:14:13;;;;;;;16.17;14.93;;;21.80;96.40;;;;;;5026941;28;20748;-60
2021/06/09 07:16:43;;;;;;;18.33;16.87;;;21.80;96.30;;;;;;5051911;28;20726;-59
2021/06/09 07:19:11;;;;;;;18.97;17.47;;;21.90;96.20;;;;;;5043217;28;20627;-59
2021/06/09 07:21:38;;;;;;;17.57;16.10;;;21.90;96.00;;;;;;5032769;28;20658;-59
2021/06/09 07:24:06;;;;;;;16.70;15.23;;;22.00;95.90;;;;;;5032917;28;20659;-57
2021/06/09 07:26:34;;;;;;;19.10;17.60;;;22.00;96.10;;;;;;5050212;28;20629;-57
2021/06/09 07:29:01;;;;;;;17.00;15.70;;;22.10;96.10;;;;;;5053693;28;20675;-56
2021/06/09 07:31:29;;;;;;;18.73;16.93;;;22.20;95.90;;;;;;5054495;28;20977;-56
2021/06/09 07:33:57;;;;;;;16.70;15.30;;;22.40;95.60;;;;;;5052258;28;20715;-57
2021/06/09 07:36:26;;;;;;;17.90;16.50;;;22.50;95.30;;;;;;5051930;28;21228;-57
2021/06/09 07:38:57;;;;;;;18.93;17.23;;;22.60;95.20;;;;;;5031129;28;20626;-58
2021/06/09 07:41:26;;;;;;;16.97;15.67;;;22.70;95.10;;;;;;5049198;28;21084;-56
2021/06/09 07:43:53;;;;;;;17.27;15.90;;;22.80;94.90;;;;;;5051120;28;20645;-56
2021/06/09 07:46:24;;;;;;;18.17;16.77;;;22.80;94.80;;;;;;5051712;28;20672;-58
2021/06/09 07:48:50;;;;;;;17.43;16.03;;;22.80;94.70;;;;;;5051846;28;20683;-59
2021/06/09 07:51:19;;;;;;;17.00;15.53;;;22.90;94.70;;;;;;5050679;28;20740;-57
2021/06/09 07:53:45;;;;;;;16.70;15.40;;;22.90;94.90;;;;;;5040269;28;20619;-57
2021/06/09 07:56:13;;;;;;;17.53;15.63;;;23.00;94.40;;;;;;5031117;28;20623;-57
2021/06/09 07:58:40;;;;;;;15.83;14.53;;;23.00;94.30;;;;;;5032201;28;20647;-58
2021/06/09 08:01:07;;;;;;;16.83;15.43;;;23.20;94.40;;;;;;5031396;28;20671;-59
2021/06/09 08:03:35;;;;;;;14.40;13.30;;;23.30;94.30;;;;;;5031549;28;20630;-60
2021/06/09 08:06:02;;;;;;;14.70;13.60;;;23.50;94.20;;;;;;5031441;28;21271;-58
2021/06/09 08:08:30;;;;;;;14.33;12.93;;;23.70;93.70;;;;;;5031401;28;20623;-58
2021/06/09 08:10:57;;;;;;;15.90;14.70;;;23.80;93.50;;;;;;5031297;28;20623;-59
2021/06/09 08:13:23;;;;;;;16.17;14.87;;;23.90;93.40;;;;;;5031429;28;20680;-57
2021/06/09 08:15:51;;;;;;;15.00;13.80;;;24.00;93.30;;;;;;5031372;28;20804;-58
2021/06/09 08:18:17;;;;;;;17.20;15.90;;;24.00;93.10;;;;;;5030970;28;20642;-60
2021/06/09 08:20:53;;;;;;;16.07;14.80;;;24.00;93.00;;;;;;5045155;28;21109;-61
2021/06/09 08:23:19;;;;;;;16.23;14.87;;;24.00;93.10;;;;;;5050832;28;20633;-60
2021/06/09 08:25:47;;;;;;;15.70;14.20;;;24.00;92.90;;;;;;5050773;28;20654;-59
2021/06/09 08:28:14;;;;;;;17.13;15.83;;;24.10;92.90;;;;;;5051079;28;20676;-59
2021/06/09 08:30:41;;;;;;;16.37;14.93;;;24.20;92.80;;;;;;5051387;28;20614;-59
2021/06/09 08:33:08;;;;;;;20.03;18.30;;;24.30;92.60;;;;;;5047896;28;20650;-59
2021/06/09 08:35:35;;;;;;;17.47;15.90;;;24.40;92.30;;;;;;5048458;28;20700;-59
2021/06/09 08:38:01;;;;;;;17.90;16.50;;;24.50;92.10;;;;;;5049978;28;20658;-60
2021/06/09 08:40:31;;;;;;;19.97;18.30;;;24.70;92.00;;;;;;5050054;28;20662;-61
2021/06/09 08:42:59;;;;;;;18.77;16.97;;;24.80;91.60;;;;;;5050099;28;21174;-60
2021/06/09 08:45:26;;;;;;;16.23;15.10;;;24.90;91.40;;;;;;5062038;23;21040;-50
2021/06/09 08:47:53;;;;;;;17.47;15.97;;;24.90;91.10;;;;;;5049079;28;20683;-50
2021/06/09 08:50:20;;;;;;;17.07;15.60;;;24.90;90.80;;;;;;5048632;28;20940;-50
2021/06/09 08:52:47;;;;;;;18.40;17.00;;;24.90;91.00;;;;;;5048635;28;20968;-50
2021/06/09 08:55:14;;;;;;;17.10;15.70;;;24.90;90.80;;;;;;5039491;28;20685;-50
2021/06/09 08:57:41;;;;;;;15.17;13.97;;;24.90;90.70;;;;;;5028126;28;21183;-50
2021/06/09 09:00:10;;;;;;;16.57;15.17;;;24.80;90.70;;;;;;5028211;28;20627;-50
2021/06/09 09:02:38;;;;;;;13.80;12.80;;;24.90;90.50;;;;;;5028819;28;20686;-51
2021/06/09 09:05:06;;;;;;;14.80;13.70;;;24.90;90.30;;;;;;5029528;28;20635;-52
2021/06/09 09:07:34;;;;;;;14.87;13.67;;;24.90;90.30;;;;;;5029285;28;21028;-51
2021/06/09 09:10:01;;;;;;;16.10;14.70;;;24.90;90.30;;;;;;5028992;28;20623;-50
2021/06/09 09:12:28;;;;;;;14.97;13.67;;;24.90;90.20;;;;;;5029122;28;21176;-51
2021/06/09 09:14:54;;;;;;;14.67;13.57;;;24.90;90.50;;;;;;5029097;28;20744;-51
2021/06/09 09:17:23;;;;;;;14.97;13.60;;;25.00;90.40;;;;;;5028803;28;20654;-52
2021/06/09 09:19:51;;;;;;;17.60;15.87;;;25.10;90.20;;;;;;5027965;28;20720;-52
2021/06/09 09:22:21;;;;;;;13.57;12.53;;;25.20;90.00;;;;;;5028945;28;20643;-52
2021/06/09 09:24:49;;;;;;;13.83;12.70;;;25.40;89.30;;;;;;5028610;28;20642;-52
2021/06/09 09:27:23;;;;;;;13.60;12.60;;;25.70;88.10;;;;;;5028409;28;21240;-52
2021/06/09 09:30:00;;;;;;;13.50;12.60;;;26.10;86.90;;;;;;5029172;28;20696;-51
2021/06/09 09:32:28;;;;;;;12.90;11.90;;;26.60;85.60;;;;;;5028651;28;20666;-51
2021/06/09 09:35:03;;;;;;;12.93;11.90;;;26.90;83.00;;;;;;5028922;28;20659;-51
2021/06/09 09:37:32;;;;;;;14.47;13.33;;;27.30;81.70;;;;;;5028959;28;20723;-50
2021/06/09 09:40:07;;;;;;;17.77;12.00;;;27.60;78.60;;;;;;5033029;28;20682;-50
2021/06/09 09:42:34;;;;;;;12.60;11.40;;;27.70;75.80;;;;;;5032096;28;20735;-51
2021/06/09 09:45:21;;;;;;;16.13;14.87;;;27.70;74.20;;;;;;5032713;28;20658;-51
2021/06/09 09:48:09;;;;;;;13.73;12.33;;;27.50;72.80;;;;;;5032396;28;20661;-50
2021/06/09 09:50:37;;;;;;;10.80;9.97;;;27.10;73.70;;;;;;5032620;28;20626;-50
2021/06/09 09:53:18;;;;;;;11.10;10.30;;;26.70;73.40;;;;;;5037491;28;20626;-50
2021/06/09 09:56:02;;;;;;;11.10;10.30;;;26.40;74.90;;;;;;5052655;28;20654;-52
2021/06/09 09:58:30;;;;;;;10.97;10.03;;;26.10;75.40;;;;;;5052651;28;20999;-51
2021/06/09 10:01:10;;;;;;;12.50;11.60;;;25.80;75.00;;;;;;5051219;28;20691;-52
2021/06/09 10:03:38;;;;;;;10.33;9.43;;;25.60;76.60;;;;;;5052312;28;20752;-51
2021/06/09 10:06:33;;;;;;;9.77;8.67;;;25.40;76.60;;;;;;5052128;28;20755;-50
2021/06/09 10:09:08;;;;;;;12.90;11.80;;;25.30;76.90;;;;;;5028158;28;20707;-51
2021/06/09 10:11:37;;;;;;;11.70;10.80;;;25.30;79.10;;;;;;5052593;28;20694;-50
2021/06/09 10:14:16;;;;;;;12.43;11.27;;;25.30;79.50;;;;;;5052340;28;21077;-50
2021/06/09 10:16:43;;;;;;;11.60;10.50;;;25.20;80.00;;;;;;5050590;28;21036;-50
2021/06/09 10:19:12;;;;;;;11.13;10.33;;;25.10;80.10;;;;;;5046562;28;20627;-49
2021/06/09 10:21:47;;;;;;;11.40;10.20;;;25.10;80.60;;;;;;5031951;28;20943;-50
2021/06/09 10:24:14;;;;;;;10.63;9.73;;;25.10;80.70;;;;;;5030602;28;20781;-51
2021/06/09 10:26:44;;;;;;;10.33;9.63;;;25.10;80.40;;;;;;5032577;28;20634;-50
2021/06/09 10:29:13;;;;;;;12.00;10.90;;;25.10;78.70;;;;;;5032043;28;20622;-49
2021/06/09 10:31:42;;;;;;;10.40;9.67;;;25.20;78.70;;;;;;5031848;28;20696;-49
2021/06/09 10:34:10;;;;;;;11.27;10.20;;;25.20;78.90;;;;;;5031857;28;20712;-49
2021/06/09 10:36:45;;;;;;;11.17;10.27;;;25.30;79.20;;;;;;5031774;28;20627;-51
2021/06/09 10:39:12;;;;;;;8.03;7.40;;;25.40;77.70;;;;;;5032059;28;20985;-51
2021/06/09 10:41:40;;;;;;;9.30;8.50;;;25.50;75.90;;;;;;5031775;28;20658;-50
2021/06/09 10:44:07;;;;;;;10.00;9.10;;;25.50;74.20;;;;;;5031889;28;20666;-49
2021/06/09 10:46:36;;;;;;;8.73;8.10;;;25.60;74.60;;;;;;5032181;28;21210;-50
2021/06/09 10:49:03;;;;;;;9.93;9.03;;;25.70;74.60;;;;;;5031392;28;21209;-48
2021/06/09 10:51:31;;;;;;;9.87;8.90;;;25.80;73.90;;;;;;5031356;28;20693;-51
2021/06/09 10:53:59;;;;;;;10.33;9.43;;;25.80;74.20;;;;;;5032273;28;20712;-51
2021/06/09 10:56:26;;;;;;;11.33;10.43;;;25.80;74.60;;;;;;5032105;28;21009;-51
2021/06/09 10:58:53;;;;;;;10.87;9.77;;;25.80;75.90;;;;;;5032451;28;20929;-51
2021/06/09 11:01:25;;;;;;;9.87;9.07;;;25.80;73.70;;;;;;5031191;28;21123;-50
2021/06/09 11:03:55;;;;;;;10.30;9.60;;;25.70;73.90;;;;;;5030934;28;20747;-51
2021/06/09 11:06:38;;;;;;;13.33;12.10;;;25.70;74.20;;;;;;5032507;28;20737;-50
2021/06/09 11:09:16;;;;;;;11.63;10.60;;;25.80;74.70;;;;;;5032384;28;20618;-49
2021/06/09 11:11:43;;;;;;;9.90;8.90;;;25.90;74.40;;;;;;5031541;28;20623;-52
2021/06/09 11:14:23;;;;;;;7.90;7.30;;;26.10;73.30;;;;;;5031603;28;20643;-50
2021/06/09 11:16:51;;;;;;;10.70;9.90;;;26.30;72.20;;;;;;5031004;28;20708;-51
2021/06/09 11:19:32;;;;;;;9.53;8.83;;;26.50;70.20;;;;;;5030656;28;20825;-50
2021/06/09 11:22:21;;;;;;;9.23;8.63;;;26.80;69.50;;;;;;5031457;28;20654;-51
2021/06/09 11:25:13;;;;;;;9.47;8.80;;;26.90;68.60;;;;;;5030939;28;20659;-50
2021/06/09 11:27:52;;;;;;;8.77;8.07;;;26.90;67.10;;;;;;5031113;28;20622;-49
2021/06/09 11:30:43;;;;;;;11.03;10.23;;;26.80;67.30;;;;;;5031144;28;21244;-51
2021/06/09 11:33:37;;;;;;;9.33;8.43;;;26.80;67.10;;;;;;5028666;28;20643;-49
2021/06/09 11:36:05;;;;;;;9.73;8.30;;;26.80;66.80;;;;;;5030048;28;20611;-51
2021/06/09 11:38:37;;;;;;;8.83;8.13;;;26.90;66.50;;;;;;5029176;28;20627;-49
2021/06/09 11:41:06;;;;;;;9.60;8.90;;;27.00;65.70;;;;;;5031638;28;20627;-49
2021/06/09 11:43:37;;;;;;;8.60;7.90;;;27.20;63.10;;;;;;5030973;28;20669;-49
2021/06/09 11:46:04;;;;;;;9.10;8.50;;;27.10;62.00;;;;;;5030509;28;20642;-50
2021/06/09 11:48:31;;;;;;;9.23;8.53;;;26.90;62.60;;;;;;5030186;28;20638;-50
2021/06/09 11:51:18;;;;;;;8.57;7.80;;;26.80;62.10;;;;;;5030931;28;20681;-50
2021/06/09 11:53:47;;;;;;;9.37;8.67;;;26.70;62.00;;;;;;5030573;28;20618;-51
2021/06/09 11:56:19;;;;;;;10.30;9.23;;;26.60;62.90;;;;;;5031076;28;21172;-50
2021/06/09 11:58:47;;;;;;;10.23;9.53;;;26.50;63.30;;;;;;5030617;28;20681;-50
2021/06/09 12:01:14;;;;;;;10.30;9.50;;;26.40;64.40;;;;;;5030020;28;20717;-51
2021/06/09 12:03:41;;;;;;;9.60;8.40;;;26.30;64.70;;;;;;5030030;28;20677;-51
2021/06/09 12:06:18;;;;;;;9.37;8.57;;;26.20;64.40;;;;;;5030386;28;20631;-50
2021/06/09 12:08:47;;;;;;;9.53;8.73;;;26.20;64.60;;;;;;5030845;28;20630;-52
2021/06/09 12:11:14;;;;;;;12.03;10.83;;;26.20;66.00;;;;;;5030457;28;20634;-51
2021/06/09 12:13:41;;;;;;;9.53;8.83;;;26.40;66.20;;;;;;5028882;28;20622;-51
2021/06/09 12:16:13;;;;;;;9.43;8.63;;;26.40;66.30;;;;;;5028517;28;20627;-50
2021/06/09 12:18:40;;;;;;;8.07;7.53;;;26.50;65.90;;;;;;5029205;28;20631;-51
2021/06/09 12:21:09;;;;;;;9.10;8.40;;;26.70;65.90;;;;;;5027793;28;20653;-50
2021/06/09 12:23:36;;;;;;;9.20;8.60;;;26.80;66.10;;;;;;5030118;28;20635;-50
2021/06/09 12:26:05;;;;;;;9.17;8.47;;;27.00;64.90;;;;;;5029761;28;20634;-51
2021/06/09 12:28:31;;;;;;;10.43;9.70;;;27.00;64.80;;;;;;5029846;28;21162;-50
2021/06/09 12:30:59;;;;;;;9.63;8.90;;;27.00;64.10;;;;;;5023033;28;20632;-50
2021/06/09 12:33:38;;;;;;;10.90;9.87;;;27.00;64.30;;;;;;5010308;28;20687;-52
2021/06/09 12:36:10;;;;;;;9.10;8.33;;;27.10;64.60;;;;;;5009748;28;20627;-51
2021/06/09 12:38:37;;;;;;;10.40;9.67;;;27.20;63.40;;;;;;5010074;28;20632;-52